Baltic Betina — 9HDW8 — position and weather

sailwx.info

Track history (hours):
 
Tides and Currents Weather Stations Pressure Air Temp Water Temp Dewpoint Dewpoint Depression Visibility Wind Speed Wind Dir Waves Ship Positions

Baltic Betina

Last reported at 2015-Mar-30 21:30 UTC. Time now 2015-Mar-31 12:33 UTC.
Position N 54°44' E 010°33'.

Length 89 m; draft 5.9 m.

Type: Ship. MMSI: 215869000.

Date/timePositionNaut miles runAvg speedWind from/ knotsBaromVisibWave heightAir tempDewpointWater temp
2015-Mar-30 21:30N 54°44' E 010°33'1211.0
2015-Mar-30 20:25N 54°39' E 010°51'8 9.5
2015-Mar-30 19:33N 54°37' E 011°05'9 8.9
2015-Mar-30 18:33N 54°34' E 011°19'9 8.8
2015-Mar-30 17:33N 54°31' E 011°34'9 9.3
2015-Mar-30 16:33N 54°29' E 011°49'8 8.3
2015-Mar-30 15:33N 54°27' E 012°03'7 7.1
2015-Mar-30 14:33N 54°32' E 012°12'13 9.1
2015-Mar-30 13:09N 54°42' E 012°27'7 9.6
2015-Mar-30 12:27N 54°45' E 012°36'36 9.1
2015-Mar-30 08:33N 54°58' E 013°34'20 9.2
2015-Mar-30 06:23N 55°07' E 014°06'8 9.8
2015-Mar-30 05:33N 55°12' E 014°16'1211.6
2015-Mar-30 04:30N 55°21' E 014°30'1111.5
2015-Mar-30 03:31N 55°29' E 014°46'1111.5
2015-Mar-30 02:32N 55°34' E 015°03'115 9.4
2015-Mar-29 14:16N 57°01' E 017°19'5 6.2
2015-Mar-29 13:30N 57°05' E 017°15'5 5.3
2015-Mar-29 12:33N 57°10' E 017°14'6 5.9
2015-Mar-29 11:34N 57°15' E 017°21'6 5.9
2015-Mar-29 10:30N 57°20' E 017°28'7 6.9
2015-Mar-29 09:33N 57°25' E 017°35'17911.2
2015-Mar-28 17:34N 59°42' E 021°19'1111.1
2015-Mar-28 16:34N 59°52' E 021°27'  
2015-Mar-25 00:26N 57°41' E 018°03'1112.0
2015-Mar-24 23:30N 57°31' E 017°53'1111.7
2015-Mar-24 22:32N 57°21' E 017°44'1211.8
2015-Mar-24 21:32N 57°10' E 017°35'12412.1
2015-Mar-24 11:17N 55°20' E 015°51'912.6
2015-Mar-24 10:34N 55°13' E 015°41'1312.3
2015-Mar-24 09:32N 55°03' E 015°30'1212.3
2015-Mar-24 08:32N 54°52' E 015°18'1212.4
2015-Mar-24 07:33N 54°42' E 015°07'1212.3
2015-Mar-24 06:33N 54°31' E 014°56'1212.3
2015-Mar-24 05:32N 54°21' E 014°45'1312.1
2015-Mar-24 04:27N 54°10' E 014°32'1112.1
2015-Mar-24 03:33N 54°02' E 014°19'9 8.6
2015-Mar-24 02:33N 53°54' E 014°16'0 0.0
2015-Mar-24 00:27N 53°54' E 014°16'0 0.0
2015-Mar-23 22:24N 53°54' E 014°16'5 5.7
2015-Mar-23 21:33N 53°49' E 014°19'10 9.5
2015-Mar-23 20:33N 53°42' E 014°29'1010.2
2015-Mar-23 19:33N 53°33' E 014°37'7 6.7
2015-Mar-23 18:33N 53°26' E 014°35'0 0.0
2015-Mar-23 17:34N 53°26' E 014°35'0 0.0
2015-Mar-23 16:34N 53°26' E 014°35'0 0.0
2015-Mar-23 15:34N 53°26' E 014°35'3 3.5
2015-Mar-23 14:33N 53°29' E 014°37'10 9.7
2015-Mar-23 13:34N 53°39' E 014°33'1211.5
2015-Mar-23 12:33N 53°48' E 014°21'7 7.2
2015-Mar-23 11:34N 53°54' E 014°15'9 8.7
2015-Mar-23 10:33N 54°03' E 014°13'1211.8
2015-Mar-23 09:33N 54°13' E 014°04'1211.9
2015-Mar-23 08:33N 54°24' E 013°54'1212.0
2015-Mar-23 07:33N 54°34' E 013°43'1212.1
2015-Mar-23 06:33N 54°42' E 013°28'1212.2
2015-Mar-23 05:33N 54°47' E 013°08'2311.7
2015-Mar-23 03:33N 55°06' E 012°44'1111.5
2015-Mar-23 02:34N 55°17' E 012°38'1211.6
2015-Mar-23 01:34N 55°28' E 012°41'1212.0
2015-Mar-23 00:34N 55°40' E 012°41'1211.9
2015-Mar-22 23:34N 55°52' E 012°39'1111.2
2015-Mar-22 22:34N 56°03' E 012°38'1111.5
2015-Mar-22 21:33N 56°10' E 012°21'1111.4
2015-Mar-22 20:34N 56°06' E 012°02'1110.4
2015-Mar-22 19:32N 55°58' E 011°50'95 2.6
2015-Mar-21 06:19N 57°25' E 010°42'1011.6
2015-Mar-21 05:30N 57°34' E 010°43'1212.2
2015-Mar-21 04:33N 57°46' E 010°44'  
Track history (hours):
 
Tides and Currents Weather Stations Pressure Air Temp Water Temp Dewpoint Dewpoint Depression Visibility Wind Speed Wind Dir Waves Ship Positions

Baltic Betina

Last reported at 2015-Mar-30 21:30 UTC. Time now 2015-Mar-31 12:33 UTC.
Position N 54°44' E 010°33'.

Length 89 m; draft 5.9 m.

Type: Ship. MMSI: 215869000.

Date/timePositionNaut miles runAvg speedWind from/ knotsBaromVisibWave heightAir tempDewpointWater temp
2015-Mar-30 21:30N 54°44' E 010°33'1211.0
2015-Mar-30 20:25N 54°39' E 010°51'8 9.5
2015-Mar-30 19:33N 54°37' E 011°05'9 8.9
2015-Mar-30 18:33N 54°34' E 011°19'9 8.8
2015-Mar-30 17:33N 54°31' E 011°34'9 9.3
2015-Mar-30 16:33N 54°29' E 011°49'8 8.3
2015-Mar-30 15:33N 54°27' E 012°03'7 7.1
2015-Mar-30 14:33N 54°32' E 012°12'13 9.1
2015-Mar-30 13:09N 54°42' E 012°27'7 9.6
2015-Mar-30 12:27N 54°45' E 012°36'36 9.1
2015-Mar-30 08:33N 54°58' E 013°34'20 9.2
2015-Mar-30 06:23N 55°07' E 014°06'8 9.8
2015-Mar-30 05:33N 55°12' E 014°16'1211.6
2015-Mar-30 04:30N 55°21' E 014°30'1111.5
2015-Mar-30 03:31N 55°29' E 014°46'1111.5
2015-Mar-30 02:32N 55°34' E 015°03'115 9.4
2015-Mar-29 14:16N 57°01' E 017°19'5 6.2
2015-Mar-29 13:30N 57°05' E 017°15'5 5.3
2015-Mar-29 12:33N 57°10' E 017°14'6 5.9
2015-Mar-29 11:34N 57°15' E 017°21'6 5.9
2015-Mar-29 10:30N 57°20' E 017°28'7 6.9
2015-Mar-29 09:33N 57°25' E 017°35'17911.2
2015-Mar-28 17:34N 59°42' E 021°19'1111.1
2015-Mar-28 16:34N 59°52' E 021°27'  
2015-Mar-25 00:26N 57°41' E 018°03'1112.0
2015-Mar-24 23:30N 57°31' E 017°53'1111.7
2015-Mar-24 22:32N 57°21' E 017°44'1211.8
2015-Mar-24 21:32N 57°10' E 017°35'12412.1
2015-Mar-24 11:17N 55°20' E 015°51'912.6
2015-Mar-24 10:34N 55°13' E 015°41'1312.3
2015-Mar-24 09:32N 55°03' E 015°30'1212.3
2015-Mar-24 08:32N 54°52' E 015°18'1212.4
2015-Mar-24 07:33N 54°42' E 015°07'1212.3
2015-Mar-24 06:33N 54°31' E 014°56'1212.3
2015-Mar-24 05:32N 54°21' E 014°45'1312.1
2015-Mar-24 04:27N 54°10' E 014°32'1112.1
2015-Mar-24 03:33N 54°02' E 014°19'9 8.6
2015-Mar-24 02:33N 53°54' E 014°16'0 0.0
2015-Mar-24 00:27N 53°54' E 014°16'0 0.0
2015-Mar-23 22:24N 53°54' E 014°16'5 5.7
2015-Mar-23 21:33N 53°49' E 014°19'10 9.5
2015-Mar-23 20:33N 53°42' E 014°29'1010.2
2015-Mar-23 19:33N 53°33' E 014°37'7 6.7
2015-Mar-23 18:33N 53°26' E 014°35'0 0.0
2015-Mar-23 17:34N 53°26' E 014°35'0 0.0
2015-Mar-23 16:34N 53°26' E 014°35'0 0.0
2015-Mar-23 15:34N 53°26' E 014°35'3 3.5
2015-Mar-23 14:33N 53°29' E 014°37'10 9.7
2015-Mar-23 13:34N 53°39' E 014°33'1211.5
2015-Mar-23 12:33N 53°48' E 014°21'7 7.2
2015-Mar-23 11:34N 53°54' E 014°15'9 8.7
2015-Mar-23 10:33N 54°03' E 014°13'1211.8
2015-Mar-23 09:33N 54°13' E 014°04'1211.9
2015-Mar-23 08:33N 54°24' E 013°54'1212.0
2015-Mar-23 07:33N 54°34' E 013°43'1212.1
2015-Mar-23 06:33N 54°42' E 013°28'1212.2
2015-Mar-23 05:33N 54°47' E 013°08'2311.7
2015-Mar-23 03:33N 55°06' E 012°44'1111.5
2015-Mar-23 02:34N 55°17' E 012°38'1211.6
2015-Mar-23 01:34N 55°28' E 012°41'1212.0
2015-Mar-23 00:34N 55°40' E 012°41'1211.9
2015-Mar-22 23:34N 55°52' E 012°39'1111.2
2015-Mar-22 22:34N 56°03' E 012°38'1111.5
2015-Mar-22 21:33N 56°10' E 012°21'1111.4
2015-Mar-22 20:34N 56°06' E 012°02'1110.4
2015-Mar-22 19:32N 55°58' E 011°50'95 2.6
2015-Mar-21 06:19N 57°25' E 010°42'1011.6
2015-Mar-21 05:30N 57°34' E 010°43'1212.2
2015-Mar-21 04:33N 57°46' E 010°44'  

Dump ship's entire track history